createdAt,value
2023-05-18T00:00:34.006Z,1.72
2023-05-18T00:01:34.021Z,1.69
2023-05-18T00:02:35.066Z,1.68
2023-05-18T00:03:35.264Z,1.70
2023-05-18T00:04:35.174Z,1.69
2023-05-18T00:05:34.556Z,1.67
2023-05-18T00:06:34.194Z,1.71
2023-05-18T00:07:34.371Z,1.70
2023-05-18T00:08:34.277Z,1.65
2023-05-18T00:09:35.314Z,1.69
2023-05-18T00:10:35.394Z,1.67
2023-05-18T00:11:34.390Z,1.67
2023-05-18T00:12:35.429Z,1.67
2023-05-18T00:13:34.479Z,1.68
2023-05-18T00:14:35.514Z,1.66
2023-05-18T00:15:34.594Z,1.65
2023-05-18T00:16:35.642Z,1.66
2023-05-18T00:17:35.658Z,1.68
2023-05-18T00:18:34.720Z,1.69
2023-05-18T00:19:35.702Z,1.67
2023-05-18T00:20:35.754Z,1.68
2023-05-18T00:21:35.774Z,1.66
2023-05-18T00:22:35.824Z,1.67
2023-05-18T00:23:34.844Z,1.65
2023-05-18T00:24:37.129Z,1.66
2023-05-18T00:25:35.930Z,1.68
2023-05-18T00:26:34.981Z,1.64
2023-05-18T00:27:35.997Z,1.66
2023-05-18T00:28:36.045Z,1.65
2023-05-18T00:29:36.107Z,1.64
2023-05-18T00:30:35.120Z,1.63
2023-05-18T00:31:36.200Z,1.65
2023-05-18T00:32:36.265Z,1.64
2023-05-18T00:33:35.244Z,1.62
2023-05-18T00:34:35.285Z,1.63
2023-05-18T00:35:36.325Z,1.64
2023-05-18T00:36:35.351Z,1.65
2023-05-18T00:37:36.386Z,1.65
2023-05-18T00:38:36.440Z,1.62
2023-05-18T00:39:36.467Z,1.63
2023-05-18T00:40:36.499Z,1.63
2023-05-18T00:41:36.576Z,1.63
2023-05-18T00:42:36.584Z,1.62
2023-05-18T00:43:35.608Z,1.63
2023-05-18T00:44:35.663Z,1.63
2023-05-18T00:45:35.759Z,1.62
2023-05-18T00:46:36.841Z,1.61
2023-05-18T00:47:36.804Z,1.60
2023-05-18T00:48:36.852Z,1.62
2023-05-18T00:49:36.863Z,1.62
2023-05-18T00:50:35.899Z,1.63
2023-05-18T00:51:36.957Z,1.59
2023-05-18T00:52:36.990Z,1.61
2023-05-18T00:53:37.029Z,1.63
2023-05-18T00:54:36.049Z,1.62
2023-05-18T00:55:37.118Z,1.60
2023-05-18T00:56:37.142Z,1.61
2023-05-18T00:57:37.170Z,1.59
2023-05-18T00:58:36.217Z,1.59
2023-05-18T00:59:36.254Z,1.62
2023-05-18T01:00:37.298Z,1.61
2023-05-18T01:01:37.399Z,1.61
2023-05-18T01:02:36.426Z,1.58
2023-05-18T01:03:37.443Z,1.59
2023-05-18T01:04:37.473Z,1.58
2023-05-18T01:05:37.494Z,1.58
2023-05-18T01:06:37.550Z,1.61
2023-05-18T01:07:36.894Z,1.60
2023-05-18T01:08:37.640Z,1.59
2023-05-18T01:09:36.668Z,1.56
2023-05-18T01:10:37.711Z,1.58
2023-05-18T01:11:36.829Z,1.58
2023-05-18T01:12:36.826Z,1.58
2023-05-18T01:13:37.844Z,1.56
2023-05-18T01:14:36.874Z,1.57
2023-05-18T01:15:36.932Z,1.58
2023-05-18T01:16:37.988Z,1.57
2023-05-18T01:17:38.036Z,1.56
2023-05-18T01:18:38.069Z,1.55
2023-05-18T01:19:37.129Z,1.57
2023-05-18T01:20:38.250Z,1.56
2023-05-18T01:21:38.203Z,1.58
2023-05-18T01:22:37.232Z,1.56
2023-05-18T01:23:38.292Z,1.57
2023-05-18T01:24:37.325Z,1.55
2023-05-18T01:25:38.358Z,1.55
2023-05-18T01:26:37.701Z,1.57
2023-05-18T01:27:38.453Z,1.53
2023-05-18T01:28:38.499Z,1.55
2023-05-18T01:29:38.575Z,1.53
2023-05-18T01:30:37.633Z,1.56
2023-05-18T01:31:37.743Z,1.57
2023-05-18T01:32:37.757Z,1.54
2023-05-18T01:33:37.737Z,1.55
2023-05-18T01:34:37.795Z,1.55
2023-05-18T01:35:38.842Z,1.55
2023-05-18T01:36:38.920Z,1.54
2023-05-18T01:37:38.928Z,1.53
2023-05-18T01:38:37.985Z,1.53
2023-05-18T01:39:39.041Z,1.52
2023-05-18T01:40:39.062Z,1.54
2023-05-18T01:41:39.127Z,1.54
2023-05-18T01:42:38.169Z,1.52
2023-05-18T01:43:39.236Z,1.54
2023-05-18T01:44:39.277Z,1.53
2023-05-18T01:45:39.310Z,1.52
2023-05-18T01:46:38.433Z,1.52
2023-05-18T01:47:39.475Z,1.54
2023-05-18T01:48:38.486Z,1.52
2023-05-18T01:49:38.510Z,1.53
2023-05-18T01:50:39.564Z,1.52
2023-05-18T01:51:39.624Z,1.52
2023-05-18T01:52:38.732Z,1.52
2023-05-18T01:53:39.702Z,1.51
2023-05-18T01:54:39.754Z,1.50
2023-05-18T01:55:38.812Z,1.53
2023-05-18T01:56:39.868Z,1.52
2023-05-18T01:57:38.932Z,1.53
2023-05-18T01:58:38.952Z,1.53
2023-05-18T01:59:40.002Z,1.53
2023-05-18T02:00:39.086Z,1.52
2023-05-18T02:01:40.157Z,1.53
2023-05-18T02:02:40.205Z,1.50
2023-05-18T02:03:40.302Z,1.49
2023-05-18T02:04:39.266Z,1.49
2023-05-18T02:05:40.301Z,1.51
2023-05-18T02:06:39.368Z,1.50
2023-05-18T02:07:40.435Z,1.50
2023-05-18T02:08:40.512Z,1.49
2023-05-18T02:09:40.499Z,1.48
2023-05-18T02:10:40.538Z,1.49
2023-05-18T02:11:40.615Z,1.50
2023-05-18T02:12:39.645Z,1.49
2023-05-18T02:13:40.683Z,1.48
2023-05-18T02:14:40.733Z,1.51
2023-05-18T02:15:39.793Z,1.46
2023-05-18T02:16:40.926Z,1.49
2023-05-18T02:17:40.032Z,1.49
2023-05-18T02:18:40.981Z,1.49
2023-05-18T02:19:40.972Z,1.46
2023-05-18T02:20:41.041Z,1.49
2023-05-18T02:21:41.121Z,1.49
2023-05-18T02:22:40.115Z,1.48
2023-05-18T02:23:41.173Z,1.48
2023-05-18T02:24:40.246Z,1.46
2023-05-18T02:25:41.249Z,1.47
2023-05-18T02:26:40.306Z,1.50
2023-05-18T02:27:40.336Z,1.45
2023-05-18T02:28:41.404Z,1.47
2023-05-18T02:29:41.429Z,1.47
2023-05-18T02:30:41.472Z,1.48
2023-05-18T02:31:41.631Z,1.46
2023-05-18T02:32:40.628Z,1.46
2023-05-18T02:33:40.610Z,1.46
2023-05-18T02:34:41.667Z,1.48
2023-05-18T02:35:41.713Z,1.47
2023-05-18T02:36:41.782Z,1.45
2023-05-18T02:37:41.843Z,1.45
2023-05-18T02:38:41.878Z,1.46
2023-05-18T02:39:41.905Z,1.47
2023-05-18T02:40:41.984Z,1.45
2023-05-18T02:41:41.009Z,1.47
2023-05-18T02:42:42.048Z,1.46
2023-05-18T02:43:41.101Z,1.47
2023-05-18T02:44:41.163Z,1.45
2023-05-18T02:45:42.246Z,1.46
2023-05-18T02:46:42.244Z,1.47
2023-05-18T02:47:41.329Z,1.48
2023-05-18T02:48:42.356Z,1.46
2023-05-18T02:49:42.396Z,1.45
2023-05-18T02:50:42.453Z,1.46
2023-05-18T02:51:41.520Z,1.42
2023-05-18T02:52:42.554Z,1.45
2023-05-18T02:53:42.604Z,1.44
2023-05-18T02:54:41.650Z,1.44
2023-05-18T02:55:42.709Z,1.44
2023-05-18T02:56:41.785Z,1.48
2023-05-18T02:57:42.823Z,1.43
2023-05-18T02:58:41.873Z,1.45
2023-05-18T02:59:41.934Z,1.42
2023-05-18T03:00:42.977Z,1.46
2023-05-18T03:01:42.084Z,1.43
2023-05-18T03:02:43.186Z,1.41
2023-05-18T03:03:42.395Z,1.43
2023-05-18T03:04:43.193Z,1.42
2023-05-18T03:05:43.251Z,1.44
2023-05-18T03:06:42.306Z,1.43
2023-05-18T03:07:42.349Z,1.41
2023-05-18T03:08:43.405Z,1.39
2023-05-18T03:09:43.456Z,1.43
2023-05-18T03:10:43.518Z,1.40
2023-05-18T03:11:43.589Z,1.43
2023-05-18T03:12:43.620Z,1.43
2023-05-18T03:13:42.677Z,1.43
2023-05-18T03:14:43.726Z,1.41
2023-05-18T03:15:42.785Z,1.42
2023-05-18T03:16:43.919Z,1.42
2023-05-18T03:17:42.959Z,1.39
2023-05-18T03:18:43.992Z,1.41
2023-05-18T03:19:44.007Z,1.41
2023-05-18T03:20:43.085Z,1.39
2023-05-18T03:21:43.127Z,1.40
2023-05-18T03:22:43.186Z,1.41
2023-05-18T03:23:44.236Z,1.39
2023-05-18T03:24:43.296Z,1.41
2023-05-18T03:25:44.341Z,1.42
2023-05-18T03:26:43.401Z,1.41
2023-05-18T03:27:44.535Z,1.38
2023-05-18T03:28:44.517Z,1.40
2023-05-18T03:29:44.577Z,1.41
2023-05-18T03:30:43.632Z,1.40
2023-05-18T03:31:44.786Z,1.41
2023-05-18T03:32:44.746Z,1.42
2023-05-18T03:33:44.765Z,1.40
2023-05-18T03:34:44.829Z,1.40
2023-05-18T03:35:44.044Z,1.40
2023-05-18T03:36:44.939Z,1.41
2023-05-18T03:37:44.024Z,1.40
2023-05-18T03:38:45.112Z,1.39
2023-05-18T03:39:45.130Z,1.38
2023-05-18T03:40:44.184Z,1.39
2023-05-18T03:41:45.246Z,1.37
2023-05-18T03:42:45.296Z,1.41
2023-05-18T03:43:44.389Z,1.38
2023-05-18T03:44:44.397Z,1.38
2023-05-18T03:45:45.455Z,1.39
2023-05-18T03:46:45.553Z,1.38
2023-05-18T03:47:45.657Z,1.38
2023-05-18T03:48:44.602Z,1.38
2023-05-18T03:49:45.660Z,1.39
2023-05-18T03:50:45.733Z,1.37
2023-05-18T03:51:45.774Z,1.38
2023-05-18T03:52:45.830Z,1.40
2023-05-18T03:53:45.890Z,1.37
2023-05-18T03:54:45.018Z,1.41
2023-05-18T03:55:45.998Z,1.38
2023-05-18T03:56:45.065Z,1.35
2023-05-18T03:57:46.125Z,1.37
2023-05-18T03:58:46.154Z,1.38
2023-05-18T03:59:45.249Z,1.37
2023-05-18T04:00:45.282Z,1.37
2023-05-18T04:01:45.404Z,1.37
2023-05-18T04:02:46.400Z,1.35
2023-05-18T04:03:46.541Z,1.36
2023-05-18T04:04:46.490Z,1.35
2023-05-18T04:05:46.553Z,1.36
2023-05-18T04:06:46.606Z,1.35
2023-05-18T04:07:46.803Z,1.35
2023-05-18T04:08:45.723Z,1.37
2023-05-18T04:09:46.780Z,1.38
2023-05-18T04:10:45.851Z,1.35
2023-05-18T04:11:46.898Z,1.36
2023-05-18T04:12:45.992Z,1.39
2023-05-18T04:13:47.013Z,1.35
2023-05-18T04:14:46.092Z,1.34
2023-05-18T04:15:47.178Z,1.35
2023-05-18T04:16:47.300Z,1.34
2023-05-18T04:17:46.413Z,1.38
2023-05-18T04:18:46.380Z,1.37
2023-05-18T04:19:47.374Z,1.36
2023-05-18T04:20:47.435Z,1.36
2023-05-18T04:21:46.475Z,1.36
2023-05-18T04:22:46.750Z,1.33
2023-05-18T04:23:47.602Z,1.34
2023-05-18T04:24:47.785Z,1.35
2023-05-18T04:25:46.709Z,1.34
2023-05-18T04:26:47.758Z,1.33
2023-05-18T04:27:50.490Z,1.31
2023-05-18T04:28:46.817Z,1.32
2023-05-18T04:29:46.798Z,1.32
2023-05-18T04:30:46.797Z,1.32
2023-05-18T04:31:47.915Z,1.34
2023-05-18T04:32:46.810Z,1.35
2023-05-18T04:33:47.772Z,1.34
2023-05-18T04:34:47.778Z,1.35
2023-05-18T04:35:46.771Z,1.34
2023-05-18T04:36:47.770Z,1.31
2023-05-18T04:37:47.763Z,1.33
2023-05-18T04:38:46.735Z,1.34
2023-05-18T04:39:46.724Z,1.34
2023-05-18T04:40:46.728Z,1.32
2023-05-18T04:41:47.718Z,1.34
2023-05-18T04:42:48.474Z,1.33
2023-05-18T04:43:46.742Z,1.32
2023-05-18T04:44:47.778Z,1.34
2023-05-18T04:45:46.847Z,1.31
2023-05-18T04:46:47.917Z,1.32
2023-05-18T04:47:47.988Z,1.31
2023-05-18T04:48:47.009Z,1.31
2023-05-18T04:49:47.111Z,1.29
2023-05-18T04:50:48.121Z,1.32
2023-05-18T04:51:48.187Z,1.34
2023-05-18T04:52:48.250Z,1.30
2023-05-18T04:53:47.296Z,1.33
2023-05-18T04:54:48.359Z,1.31
2023-05-18T04:55:48.403Z,1.32
2023-05-18T04:56:47.462Z,1.33
2023-05-18T04:57:47.517Z,1.33
2023-05-18T04:58:48.555Z,1.30
2023-05-18T04:59:47.608Z,1.32
2023-05-18T05:00:48.666Z,1.33
2023-05-18T05:01:48.777Z,1.32
2023-05-18T05:02:47.897Z,1.30
2023-05-18T05:03:47.931Z,1.31
2023-05-18T05:04:47.894Z,1.32
2023-05-18T05:05:48.930Z,1.31
2023-05-18T05:06:49.082Z,1.31
2023-05-18T05:07:48.057Z,1.31
2023-05-18T05:08:49.100Z,1.29
2023-05-18T05:09:49.177Z,1.32
2023-05-18T05:10:48.202Z,1.30
2023-05-18T05:11:49.264Z,1.31
2023-05-18T05:12:49.784Z,1.29
2023-05-18T05:13:49.358Z,1.31
2023-05-18T05:14:49.418Z,1.29
2023-05-18T05:15:49.503Z,1.31
2023-05-18T05:16:49.516Z,1.29
2023-05-18T05:17:49.638Z,1.30
2023-05-18T05:18:48.724Z,1.28
2023-05-18T05:19:48.722Z,1.32
2023-05-18T05:20:49.745Z,1.31
2023-05-18T05:21:48.804Z,1.30
2023-05-18T05:22:48.883Z,1.29
2023-05-18T05:23:49.925Z,1.29
2023-05-18T05:24:49.949Z,1.29
2023-05-18T05:25:50.034Z,1.29
2023-05-18T05:26:49.066Z,1.27
2023-05-18T05:27:50.134Z,1.28
2023-05-18T05:28:50.181Z,1.30
2023-05-18T05:29:49.233Z,1.29
2023-05-18T05:30:50.284Z,1.29
2023-05-18T05:31:50.470Z,1.29
2023-05-18T05:32:49.466Z,1.29
2023-05-18T05:33:50.462Z,1.30
2023-05-18T05:34:50.511Z,1.28
2023-05-18T05:35:49.644Z,1.29
2023-05-18T05:36:50.589Z,1.28
2023-05-18T05:37:49.662Z,1.28
2023-05-18T05:38:50.698Z,1.28
2023-05-18T05:39:50.745Z,1.31
2023-05-18T05:40:49.794Z,1.27
2023-05-18T05:41:49.844Z,1.29
2023-05-18T05:42:49.897Z,1.31
2023-05-18T05:43:50.956Z,1.28
2023-05-18T05:44:50.004Z,1.28
2023-05-18T05:45:51.063Z,1.27
2023-05-18T05:46:51.176Z,1.26
2023-05-18T05:47:51.201Z,1.26
2023-05-18T05:48:51.211Z,1.26
2023-05-18T05:49:50.268Z,1.29
2023-05-18T05:50:51.422Z,1.26
2023-05-18T05:51:50.406Z,1.29
2023-05-18T05:52:50.425Z,1.28
2023-05-18T05:53:50.479Z,1.26
2023-05-18T05:54:51.500Z,1.26
2023-05-18T05:55:50.544Z,1.27
2023-05-18T05:56:51.620Z,1.27
2023-05-18T05:57:50.678Z,1.29
2023-05-18T05:58:51.704Z,1.26
2023-05-18T05:59:50.741Z,1.28
2023-05-18T06:00:51.812Z,1.26
2023-05-18T06:01:51.879Z,1.25
2023-05-18T06:02:50.909Z,1.25
2023-05-18T06:03:51.978Z,1.27
2023-05-18T06:04:51.978Z,1.26
2023-05-18T06:05:52.042Z,1.27
2023-05-18T06:06:51.061Z,1.28
2023-05-18T06:07:52.141Z,1.25
2023-05-18T06:08:52.157Z,1.25
2023-05-18T06:09:52.196Z,1.25
2023-05-18T06:10:52.240Z,1.26
2023-05-18T06:11:52.284Z,1.26
2023-05-18T06:12:52.313Z,1.27
2023-05-18T06:13:52.370Z,1.24
2023-05-18T06:14:52.408Z,1.26
2023-05-18T06:15:52.457Z,1.23
2023-05-18T06:16:52.534Z,1.25
2023-05-18T06:17:52.583Z,1.23
2023-05-18T06:18:52.603Z,1.27
2023-05-18T06:19:52.598Z,1.25
2023-05-18T06:20:51.745Z,1.24
2023-05-18T06:21:51.768Z,1.27
2023-05-18T06:22:52.750Z,1.24
2023-05-18T06:23:52.809Z,1.24
2023-05-18T06:24:52.792Z,1.25
2023-05-18T06:25:52.831Z,1.25
2023-05-18T06:26:52.869Z,1.25
2023-05-18T06:27:51.972Z,1.23
2023-05-18T06:28:52.944Z,1.23
2023-05-18T06:29:53.001Z,1.25
2023-05-18T06:30:53.018Z,1.23
2023-05-18T06:31:53.120Z,1.24
2023-05-18T06:32:52.191Z,1.23
2023-05-18T06:33:53.145Z,1.23
2023-05-18T06:34:53.181Z,1.24
2023-05-18T06:35:53.196Z,1.22
2023-05-18T06:36:52.237Z,1.25
2023-05-18T06:37:52.303Z,1.26
2023-05-18T06:38:53.315Z,1.21
2023-05-18T06:39:52.357Z,1.24
2023-05-18T06:40:53.357Z,1.22
2023-05-18T06:41:52.411Z,1.22
2023-05-18T06:42:53.469Z,1.25
2023-05-18T06:43:53.452Z,1.24
2023-05-18T06:44:52.474Z,1.23
2023-05-18T06:45:52.521Z,1.23
2023-05-18T06:46:53.567Z,1.22
2023-05-18T06:47:52.599Z,1.24
2023-05-18T06:48:52.586Z,1.23
2023-05-18T06:49:52.604Z,1.23
2023-05-18T06:50:53.651Z,1.22
2023-05-18T06:51:52.665Z,1.22
2023-05-18T06:52:53.691Z,1.20
2023-05-18T06:53:52.755Z,1.21
2023-05-18T06:54:52.742Z,1.20
2023-05-18T06:55:53.806Z,1.21
2023-05-18T06:56:53.813Z,1.21
2023-05-18T06:57:53.826Z,1.22
2023-05-18T06:58:53.838Z,1.17
2023-05-18T06:59:52.872Z,1.21
2023-05-18T07:00:52.887Z,1.19
2023-05-18T07:01:54.073Z,1.20
2023-05-18T07:02:54.016Z,1.19
2023-05-18T07:03:53.010Z,1.19
2023-05-18T07:04:53.019Z,1.18
2023-05-18T07:05:54.013Z,1.18
2023-05-18T07:06:54.041Z,1.17
2023-05-18T07:07:54.106Z,1.15
2023-05-18T07:08:53.114Z,1.11
2023-05-18T07:09:53.091Z,1.17
2023-05-18T07:10:54.112Z,1.16
2023-05-18T07:11:53.178Z,1.15
2023-05-18T07:12:54.195Z,1.18
2023-05-18T07:13:53.207Z,1.13
2023-05-18T07:14:53.208Z,1.16
2023-05-18T07:15:54.290Z,1.18
2023-05-18T07:16:54.245Z,1.17
2023-05-18T07:17:54.366Z,1.16
2023-05-18T07:18:54.323Z,1.19
2023-05-18T07:19:54.320Z,1.14
2023-05-18T07:20:54.331Z,1.18
2023-05-18T07:21:54.345Z,1.17
2023-05-18T07:22:53.368Z,1.16
2023-05-18T07:23:54.402Z,1.15
2023-05-18T07:24:54.400Z,1.18
2023-05-18T07:25:54.433Z,1.16
2023-05-18T07:26:53.443Z,1.16
2023-05-18T07:27:54.635Z,1.14
2023-05-18T07:28:54.479Z,1.16
2023-05-18T07:29:54.490Z,1.17
2023-05-18T07:30:54.517Z,1.17
2023-05-18T07:31:54.722Z,1.12
2023-05-18T07:32:54.597Z,1.14
2023-05-18T07:33:54.579Z,1.14
2023-05-18T07:34:54.601Z,1.11
2023-05-18T07:35:53.618Z,1.13
2023-05-18T07:36:53.631Z,1.10
2023-05-18T07:37:54.664Z,1.12
2023-05-18T07:38:54.759Z,1.14
2023-05-18T07:39:54.727Z,1.11
2023-05-18T07:40:54.714Z,1.09
2023-05-18T07:41:54.743Z,1.10
2023-05-18T07:42:53.741Z,1.08
2023-05-18T07:43:54.806Z,1.12
2023-05-18T07:44:53.810Z,1.10
2023-05-18T07:45:54.902Z,1.12
2023-05-18T07:46:55.141Z,1.10
2023-05-18T07:47:54.943Z,1.09
2023-05-18T07:48:54.904Z,1.09
2023-05-18T07:49:53.959Z,1.05
2023-05-18T07:50:53.905Z,1.10
2023-05-18T07:51:55.052Z,1.09
2023-05-18T07:52:54.948Z,1.12
2023-05-18T07:53:54.990Z,1.09
2023-05-18T07:54:53.984Z,1.10
2023-05-18T07:55:55.050Z,1.07
2023-05-18T07:56:54.099Z,1.07
2023-05-18T07:57:54.036Z,1.07
2023-05-18T07:58:55.355Z,1.08
2023-05-18T07:59:54.081Z,1.08
2023-05-18T08:00:55.078Z,1.08
2023-05-18T08:01:55.183Z,1.03
2023-05-18T08:02:54.212Z,1.07
2023-05-18T08:03:54.339Z,1.06
2023-05-18T08:04:54.237Z,1.01
2023-05-18T08:05:55.240Z,1.07
2023-05-18T08:06:55.243Z,1.06
2023-05-18T08:07:55.183Z,1.06
2023-05-18T08:08:54.253Z,1.04
2023-05-18T08:09:54.386Z,1.04
2023-05-18T08:10:54.393Z,1.04
2023-05-18T08:11:54.299Z,1.02
2023-05-18T08:12:54.268Z,1.07
2023-05-18T08:13:54.269Z,1.03
2023-05-18T08:14:55.450Z,1.05
2023-05-18T08:16:07.239Z,1.04
2023-05-18T08:16:55.383Z,1.04
2023-05-18T08:17:55.379Z,1.02
2023-05-18T08:18:55.318Z,1.02
2023-05-18T08:19:55.290Z,1.03
2023-05-18T08:20:54.247Z,1.00
2023-05-18T08:21:55.248Z,1.05
2023-05-18T08:22:54.239Z,1.05
2023-05-18T08:23:54.236Z,1.00
2023-05-18T08:24:55.224Z,1.02
2023-05-18T08:25:54.234Z,1.04
2023-05-18T08:26:54.221Z,1.03
2023-05-18T08:27:55.197Z,1.00
2023-05-18T08:28:54.305Z,1.07
2023-05-18T08:29:55.278Z,1.02
2023-05-18T08:30:55.208Z,1.04
2023-05-18T08:31:55.273Z,1.00
2023-05-18T08:32:55.197Z,0.97
2023-05-18T08:33:54.174Z,1.02
2023-05-18T08:34:54.150Z,1.03
2023-05-18T08:35:54.146Z,1.04
2023-05-18T08:36:55.339Z,0.97
2023-05-18T08:37:54.254Z,1.02
2023-05-18T08:38:55.140Z,0.99
2023-05-18T08:39:55.166Z,1.01
2023-05-18T08:40:54.105Z,0.95
2023-05-18T08:41:54.103Z,0.95
2023-05-18T08:42:55.090Z,0.96
2023-05-18T08:43:55.089Z,0.97
2023-05-18T08:44:55.065Z,0.99
2023-05-18T08:45:55.058Z,0.99
2023-05-18T08:46:54.061Z,1.01
2023-05-18T08:47:54.128Z,0.97
2023-05-18T08:48:54.187Z,0.99
2023-05-18T08:49:54.038Z,0.94
2023-05-18T08:50:54.126Z,1.00
2023-05-18T08:51:54.158Z,1.00
2023-05-18T08:52:54.009Z,1.01
2023-05-18T08:53:54.183Z,0.99
2023-05-18T08:54:54.008Z,0.97
2023-05-18T08:55:54.993Z,0.99
2023-05-18T08:56:54.993Z,1.01
2023-05-18T08:57:54.973Z,0.98
2023-05-18T08:58:54.974Z,0.98
2023-05-18T08:59:53.984Z,0.99
2023-05-18T09:00:53.955Z,0.99
2023-05-18T09:01:54.024Z,1.01
2023-05-18T09:02:54.989Z,1.00
2023-05-18T09:03:54.965Z,0.99
2023-05-18T09:04:54.959Z,1.00
2023-05-18T09:05:54.912Z,1.01
2023-05-18T09:06:54.921Z,0.97
2023-05-18T09:07:54.914Z,0.98
2023-05-18T09:08:53.901Z,0.97
2023-05-18T09:09:54.164Z,0.96
2023-05-18T09:10:55.129Z,0.98
2023-05-18T09:11:53.980Z,0.99
2023-05-18T09:12:53.975Z,0.98
2023-05-18T09:13:55.143Z,0.98
2023-05-18T09:14:55.135Z,0.98
2023-05-18T09:15:54.055Z,1.01
2023-05-18T09:16:53.960Z,0.96
2023-05-18T09:17:53.912Z,1.00
2023-05-18T09:18:55.002Z,0.97
2023-05-18T09:19:54.889Z,0.96
2023-05-18T09:20:54.812Z,0.97
2023-05-18T09:21:53.873Z,0.97
2023-05-18T09:22:54.877Z,0.96
2023-05-18T09:23:55.048Z,0.97
2023-05-18T09:24:53.948Z,1.00
2023-05-18T09:25:54.847Z,1.00
2023-05-18T09:26:53.947Z,0.98
2023-05-18T09:27:53.870Z,1.00
2023-05-18T09:28:54.986Z,0.99
2023-05-18T09:29:54.740Z,0.98
2023-05-18T09:30:54.919Z,0.98
2023-05-18T09:31:54.825Z,0.97
2023-05-18T09:32:54.137Z,0.98
2023-05-18T09:33:53.838Z,1.00
2023-05-18T09:34:54.785Z,0.99
2023-05-18T09:35:53.913Z,0.98
2023-05-18T09:36:53.996Z,1.01
2023-05-18T09:37:53.851Z,0.95
2023-05-18T09:38:55.035Z,0.97
2023-05-18T09:39:53.997Z,0.98
2023-05-18T09:40:53.857Z,0.93
2023-05-18T09:41:54.886Z,0.99
2023-05-18T09:42:55.091Z,0.96
2023-05-18T09:43:54.046Z,0.97
2023-05-18T09:44:53.996Z,0.98
2023-05-18T09:45:54.912Z,0.94
2023-05-18T09:46:55.231Z,0.98
2023-05-18T09:47:54.997Z,0.96
2023-05-18T09:48:54.062Z,0.94
2023-05-18T09:49:53.990Z,0.95
2023-05-18T09:50:53.939Z,0.98
2023-05-18T09:51:54.161Z,0.94
2023-05-18T09:52:55.123Z,0.98
2023-05-18T09:53:54.027Z,0.97
2023-05-18T09:54:55.213Z,0.93
2023-05-18T09:55:55.071Z,0.98
2023-05-18T09:57:08.941Z,0.97
2023-05-18T09:57:54.990Z,0.97
2023-05-18T09:58:53.978Z,0.93
2023-05-18T09:59:54.988Z,0.98
2023-05-18T10:00:55.030Z,0.97
2023-05-18T10:01:53.997Z,0.97
2023-05-18T10:02:55.031Z,0.97
2023-05-18T10:03:54.017Z,0.93
2023-05-18T10:04:53.969Z,0.97
2023-05-18T10:05:54.033Z,0.97
2023-05-18T10:06:55.101Z,0.97
2023-05-18T10:07:55.236Z,0.95
2023-05-18T10:08:54.946Z,0.94
2023-05-18T10:09:53.907Z,0.96
2023-05-18T10:10:55.120Z,0.97
2023-05-18T10:11:54.902Z,0.93
2023-05-18T10:12:53.927Z,0.95
2023-05-18T10:13:53.874Z,0.94
2023-05-18T10:14:54.862Z,0.96
2023-05-18T10:15:53.890Z,0.94
2023-05-18T10:17:03.443Z,0.97
2023-05-18T10:17:54.849Z,0.97
2023-05-18T10:18:54.938Z,0.97
2023-05-18T10:19:54.883Z,0.97
2023-05-18T10:20:55.037Z,0.94
2023-05-18T10:21:54.822Z,0.97
2023-05-18T10:22:54.803Z,0.97
2023-05-18T10:23:53.891Z,0.99
2023-05-18T10:24:53.841Z,0.97
2023-05-18T10:25:54.785Z,0.98
2023-05-18T10:26:55.681Z,0.96
2023-05-18T10:27:54.949Z,0.98
2023-05-18T10:28:53.802Z,0.97
2023-05-18T10:29:54.756Z,0.96
2023-05-18T10:30:53.846Z,0.98
2023-05-18T10:31:54.739Z,0.97
2023-05-18T10:32:54.755Z,0.95
2023-05-18T10:33:54.745Z,0.93
2023-05-18T10:34:54.745Z,0.96
2023-05-18T10:35:53.714Z,0.95
2023-05-18T10:36:53.718Z,0.95
2023-05-18T10:37:53.698Z,0.92
2023-05-18T10:38:53.790Z,0.97
2023-05-18T10:39:53.711Z,0.98
2023-05-18T10:40:54.753Z,0.97
2023-05-18T10:41:53.673Z,0.95
2023-05-18T10:42:54.861Z,0.98
2023-05-18T10:43:53.682Z,0.95
2023-05-18T10:44:54.646Z,0.93
2023-05-18T10:45:54.680Z,0.92
2023-05-18T10:46:53.746Z,0.95
2023-05-18T10:47:53.799Z,0.95
2023-05-18T10:48:53.615Z,0.96
2023-05-18T10:49:54.634Z,0.96
2023-05-18T10:50:53.609Z,0.97
2023-05-18T10:51:53.585Z,0.91
2023-05-18T10:52:53.580Z,0.95
2023-05-18T10:53:56.190Z,0.95
2023-05-18T10:54:53.566Z,0.96
2023-05-18T10:55:53.576Z,0.97
2023-05-18T10:56:54.755Z,0.95
2023-05-18T10:57:54.549Z,0.97
2023-05-18T10:58:53.553Z,0.96
2023-05-18T10:59:53.550Z,0.94
2023-05-18T11:00:54.522Z,0.96
2023-05-18T11:01:53.553Z,0.95
2023-05-18T11:02:53.537Z,0.96
2023-05-18T11:03:53.503Z,0.94
2023-05-18T11:04:54.361Z,0.92
2023-05-18T11:05:53.498Z,0.94
2023-05-18T11:06:53.483Z,0.94
2023-05-18T11:07:54.472Z,0.93
2023-05-18T11:08:54.466Z,0.96
2023-05-18T11:09:53.478Z,0.95
2023-05-18T11:10:53.445Z,0.97
2023-05-18T11:11:54.461Z,0.95
2023-05-18T11:12:53.444Z,0.95
2023-05-18T11:13:54.501Z,0.89
2023-05-18T11:14:54.416Z,0.93
2023-05-18T11:15:53.517Z,0.93
2023-05-18T11:16:54.548Z,0.94
2023-05-18T11:17:54.455Z,0.92
2023-05-18T11:18:54.432Z,0.94
2023-05-18T11:19:54.447Z,0.92
2023-05-18T11:20:54.380Z,0.92
2023-05-18T11:21:54.376Z,0.95
2023-05-18T11:22:54.356Z,0.92
2023-05-18T11:23:54.361Z,0.94
2023-05-18T11:24:53.342Z,0.91
2023-05-18T11:25:54.350Z,0.92
2023-05-18T11:26:54.322Z,0.95
2023-05-18T11:27:54.351Z,0.95
2023-05-18T11:28:53.311Z,0.89
2023-05-18T11:30:07.702Z,0.88
2023-05-18T11:30:54.391Z,0.89
2023-05-18T11:31:53.483Z,0.89
2023-05-18T11:32:53.352Z,0.89
2023-05-18T11:33:54.290Z,0.90
2023-05-18T11:34:54.294Z,0.93
2023-05-18T11:35:54.284Z,0.94
2023-05-18T11:36:54.254Z,0.92
2023-05-18T11:37:54.234Z,0.92
2023-05-18T11:38:53.325Z,0.89
2023-05-18T11:39:59.061Z,0.92
2023-05-18T11:40:54.233Z,0.92
2023-05-18T11:41:54.222Z,0.92
2023-05-18T11:42:54.421Z,0.93
2023-05-18T11:43:54.319Z,0.93
2023-05-18T11:44:54.294Z,0.93
2023-05-18T11:45:53.202Z,0.89
2023-05-18T11:46:53.171Z,0.89
2023-05-18T11:47:54.409Z,0.89
2023-05-18T11:48:54.235Z,0.90
2023-05-18T11:49:53.180Z,0.92
2023-05-18T11:50:53.149Z,0.90
2023-05-18T11:51:54.652Z,0.92
2023-05-18T11:52:54.252Z,0.89
2023-05-18T11:53:53.109Z,0.88
2023-05-18T11:54:53.125Z,0.92
2023-05-18T11:55:54.232Z,0.92
2023-05-18T11:56:53.132Z,0.87
2023-05-18T11:57:53.213Z,0.89
2023-05-18T11:58:53.300Z,0.89
2023-05-18T11:59:54.117Z,0.88
2023-05-18T12:00:53.082Z,0.89
2023-05-18T12:01:54.092Z,0.92
2023-05-18T12:02:53.233Z,0.92
2023-05-18T12:03:54.176Z,0.90
2023-05-18T12:04:54.076Z,0.88
2023-05-18T12:05:54.064Z,0.92
2023-05-18T12:06:53.089Z,0.92
2023-05-18T12:07:54.086Z,0.86
2023-05-18T12:08:53.093Z,0.89
2023-05-18T12:09:54.102Z,0.84
2023-05-18T12:10:53.093Z,0.93
2023-05-18T12:11:54.121Z,0.88
2023-05-18T12:12:53.117Z,0.96
2023-05-18T12:13:54.128Z,0.92
2023-05-18T12:14:53.127Z,0.93
2023-05-18T12:15:53.216Z,0.89
2023-05-18T12:16:54.162Z,0.87
2023-05-18T12:17:53.187Z,0.92
2023-05-18T12:18:53.177Z,0.89
2023-05-18T12:19:53.186Z,0.91
2023-05-18T12:20:53.169Z,0.90
2023-05-18T12:21:54.153Z,0.93
2023-05-18T12:22:54.195Z,0.94
2023-05-18T12:23:53.220Z,0.94
2023-05-18T12:24:54.166Z,0.91
2023-05-18T12:25:53.164Z,0.92
2023-05-18T12:26:53.184Z,0.94
2023-05-18T12:27:53.195Z,0.89
2023-05-18T12:28:53.181Z,0.91
2023-05-18T12:29:53.213Z,0.93
2023-05-18T12:30:53.243Z,0.89
2023-05-18T12:31:53.311Z,0.85
2023-05-18T12:32:53.290Z,0.87
2023-05-18T12:33:54.614Z,0.91
2023-05-18T12:34:53.200Z,0.88
2023-05-18T12:35:54.188Z,0.87
2023-05-18T12:36:54.200Z,0.92
2023-05-18T12:37:54.212Z,0.91
2023-05-18T12:38:54.203Z,0.87
2023-05-18T12:39:54.323Z,0.94
2023-05-18T12:40:54.199Z,0.87
2023-05-18T12:41:53.199Z,0.96
2023-05-18T12:42:54.192Z,0.91
2023-05-18T12:43:54.169Z,0.86
2023-05-18T12:44:53.187Z,0.85
2023-05-18T12:45:54.190Z,0.87
2023-05-18T12:46:54.241Z,0.91
2023-05-18T12:47:53.273Z,0.88
2023-05-18T12:48:53.158Z,0.87
2023-05-18T12:49:53.194Z,0.86
2023-05-18T12:50:53.181Z,0.90
2023-05-18T12:51:54.182Z,0.85
2023-05-18T12:52:53.200Z,0.89
2023-05-18T12:53:53.169Z,0.87
2023-05-18T12:54:54.178Z,0.88
2023-05-18T12:55:54.168Z,0.86
2023-05-18T12:56:54.170Z,0.93
2023-05-18T12:57:54.163Z,0.90
2023-05-18T12:58:54.157Z,0.91
2023-05-18T12:59:53.198Z,0.89
2023-05-18T13:00:53.175Z,0.86
2023-05-18T13:01:53.216Z,0.91
2023-05-18T13:02:53.266Z,0.93
2023-05-18T13:03:54.337Z,0.88
2023-05-18T13:04:53.148Z,0.92
2023-05-18T13:05:54.184Z,0.85
2023-05-18T13:06:54.187Z,0.88
2023-05-18T13:07:53.205Z,0.86
2023-05-18T13:08:54.228Z,0.89
2023-05-18T13:09:53.229Z,0.90
2023-05-18T13:11:04.974Z,0.93
2023-05-18T13:12:06.330Z,0.93
2023-05-18T13:12:54.232Z,0.93
2023-05-18T13:13:54.233Z,0.93
2023-05-18T13:14:54.228Z,0.94
2023-05-18T13:15:54.217Z,0.88
2023-05-18T13:16:54.267Z,0.89
2023-05-18T13:17:53.213Z,0.90
2023-05-18T13:18:53.395Z,0.94